createdAt,value
2023-01-09T00:01:40.556Z,0.88
2023-01-09T00:03:42.664Z,0.90
2023-01-09T00:05:44.726Z,0.88
2023-01-09T00:07:46.510Z,0.95
2023-01-09T00:09:48.375Z,0.95
2023-01-09T00:11:51.297Z,0.93
2023-01-09T00:13:53.187Z,0.50
2023-01-09T00:15:54.977Z,0.55
2023-01-09T00:17:57.031Z,0.77
2023-01-09T00:19:59.178Z,0.80
2023-01-09T00:22:01.037Z,1.10
2023-01-09T00:24:02.955Z,0.93
2023-01-09T00:26:08.869Z,0.60
2023-01-09T00:28:11.117Z,0.75
2023-01-09T00:30:13.441Z,0.80
2023-01-09T00:32:16.254Z,1.80
2023-01-09T00:34:18.012Z,0.60
2023-01-09T00:36:19.947Z,0.43
2023-01-09T00:38:21.716Z,0.50
2023-01-09T00:40:23.626Z,0.98
2023-01-09T00:42:30.996Z,0.50
2023-01-09T00:44:37.507Z,0.77
2023-01-09T00:46:43.921Z,0.50
2023-01-09T00:48:48.241Z,0.70
2023-01-09T00:50:50.164Z,0.30
2023-01-09T00:52:57.147Z,1.25
2023-01-09T00:54:59.836Z,0.70
2023-01-09T00:57:02.205Z,0.50
2023-01-09T00:59:05.370Z,0.63
2023-01-09T01:01:07.293Z,0.88
2023-01-09T01:03:09.373Z,0.68
2023-01-09T01:05:20.259Z,0.95
2023-01-09T01:09:34.335Z,0.57
2023-01-09T01:11:36.429Z,0.90
2023-01-09T01:13:40.080Z,0.93
2023-01-09T01:15:43.423Z,0.60
2023-01-09T01:17:46.088Z,0.40
2023-01-09T01:19:47.945Z,0.70
2023-01-09T01:21:49.854Z,1.27
2023-01-09T01:23:51.652Z,0.95
2023-01-09T01:25:53.665Z,0.50
2023-01-09T01:27:55.412Z,1.08
2023-01-09T01:29:57.516Z,0.90
2023-01-09T01:31:59.333Z,0.63
2023-01-09T01:34:01.203Z,1.00
2023-01-09T01:36:06.225Z,1.02
2023-01-09T01:38:08.136Z,1.00
2023-01-09T01:40:11.829Z,1.35
2023-01-09T01:42:14.786Z,1.10
2023-01-09T01:44:35.565Z,1.15
2023-01-09T01:46:37.257Z,0.73
2023-01-09T01:48:38.993Z,0.70
2023-01-09T01:50:50.229Z,0.95
2023-01-09T01:53:00.987Z,1.55
2023-01-09T01:55:04.888Z,0.90
2023-01-09T01:57:07.058Z,0.80
2023-01-09T01:59:17.459Z,0.65
2023-01-09T02:01:20.967Z,0.63
2023-01-09T02:03:27.131Z,0.52
2023-01-09T02:05:29.759Z,0.57
2023-01-09T02:07:31.587Z,1.27
2023-01-09T02:09:33.524Z,1.30
2023-01-09T02:11:35.200Z,0.88
2023-01-09T02:13:40.601Z,0.63
2023-01-09T02:15:57.740Z,0.90
2023-01-09T02:18:17.656Z,0.77
2023-01-09T02:20:41.472Z,0.57
2023-01-09T02:22:54.114Z,0.63
2023-01-09T02:25:15.439Z,0.73
2023-01-09T02:27:29.563Z,0.70
2023-01-09T02:29:50.292Z,0.70
2023-01-09T02:32:05.992Z,0.50
2023-01-09T02:34:11.076Z,0.50
2023-01-09T02:36:26.279Z,0.47
2023-01-09T02:38:33.962Z,0.98
2023-01-09T02:40:44.423Z,0.63
2023-01-09T02:42:48.726Z,0.60
2023-01-09T02:44:51.086Z,0.68
2023-01-09T02:47:12.737Z,0.40
2023-01-09T02:49:16.921Z,0.80
2023-01-09T02:51:35.903Z,0.40
2023-01-09T02:53:57.752Z,0.57
2023-01-09T02:56:21.379Z,0.35
2023-01-09T02:58:52.341Z,0.40
2023-01-09T03:03:22.395Z,0.77
2023-01-09T03:05:25.473Z,0.40
2023-01-09T03:07:41.814Z,0.30
2023-01-09T03:09:47.728Z,0.40
2023-01-09T03:11:56.523Z,0.20
2023-01-09T03:14:08.132Z,0.40
2023-01-09T03:16:13.640Z,0.30
2023-01-09T03:18:18.772Z,0.47
2023-01-09T03:20:24.533Z,0.50
2023-01-09T03:22:26.335Z,0.60
2023-01-09T03:24:28.224Z,0.50
2023-01-09T03:26:31.115Z,0.40
2023-01-09T03:28:32.812Z,0.70
2023-01-09T03:30:36.101Z,0.50
2023-01-09T03:32:37.779Z,0.75
2023-01-09T03:34:39.525Z,0.57
2023-01-09T03:36:41.265Z,0.47
2023-01-09T03:38:42.911Z,0.45
2023-01-09T03:40:44.680Z,0.50
2023-01-09T03:42:46.978Z,0.45
2023-01-09T03:44:50.810Z,0.30
2023-01-09T03:46:52.537Z,0.32
2023-01-09T03:48:54.174Z,0.50
2023-01-09T03:50:56.923Z,0.50
2023-01-09T03:52:58.590Z,0.52
2023-01-09T03:55:00.271Z,0.70
2023-01-09T03:57:02.011Z,0.47
2023-01-09T03:59:03.691Z,0.40
2023-01-09T04:01:09.483Z,0.70
2023-01-09T04:03:12.016Z,0.70
2023-01-09T04:05:14.089Z,0.55
2023-01-09T04:07:15.808Z,0.73
2023-01-09T04:09:17.523Z,0.45
2023-01-09T04:11:19.275Z,0.60
2023-01-09T04:13:20.931Z,0.50
2023-01-09T04:15:23.425Z,0.82
2023-01-09T04:17:25.110Z,0.98
2023-01-09T04:19:26.850Z,1.00
2023-01-09T04:21:28.554Z,0.40
2023-01-09T04:23:30.205Z,0.50
2023-01-09T04:25:31.884Z,0.52
2023-01-09T04:27:33.993Z,0.50
2023-01-09T04:29:35.634Z,0.60
2023-01-09T04:31:37.441Z,0.90
2023-01-09T04:33:39.187Z,1.00
2023-01-09T04:35:40.914Z,1.00
2023-01-09T04:37:42.590Z,0.75
2023-01-09T04:39:44.298Z,0.60
2023-01-09T04:41:49.024Z,0.77
2023-01-09T04:43:50.710Z,0.60
2023-01-09T04:45:52.421Z,0.90
2023-01-09T04:47:54.125Z,0.90
2023-01-09T04:49:55.803Z,1.00
2023-01-09T04:51:57.711Z,0.80
2023-01-09T04:53:59.417Z,0.73
2023-01-09T04:56:01.169Z,0.70
2023-01-09T04:58:02.836Z,1.23
2023-01-09T05:00:09.724Z,0.50
2023-01-09T05:02:11.687Z,1.10
2023-01-09T05:04:14.296Z,0.68
2023-01-09T05:06:16.200Z,0.50
2023-01-09T05:08:17.865Z,0.70
2023-01-09T05:10:19.780Z,1.10
2023-01-09T05:12:21.463Z,0.40
2023-01-09T05:14:23.121Z,0.82
2023-01-09T05:16:24.964Z,0.93
2023-01-09T05:18:26.639Z,1.25
2023-01-09T05:20:28.367Z,1.17
2023-01-09T05:22:30.014Z,1.20
2023-01-09T05:24:31.822Z,1.17
2023-01-09T05:26:33.823Z,0.73
2023-01-09T05:28:35.529Z,0.90
2023-01-09T05:30:37.179Z,0.93
2023-01-09T05:32:38.894Z,0.88
2023-01-09T05:34:40.614Z,0.60
2023-01-09T05:36:42.355Z,0.98
2023-01-09T05:38:44.129Z,0.80
2023-01-09T05:40:45.837Z,0.88
2023-01-09T05:42:47.554Z,0.95
2023-01-09T05:44:49.243Z,1.08
2023-01-09T05:46:51.126Z,0.90
2023-01-09T05:48:52.849Z,1.00
2023-01-09T05:50:54.590Z,0.77
2023-01-09T05:52:56.259Z,2.25
2023-01-09T05:54:57.984Z,0.75
2023-01-09T05:56:59.662Z,0.73
2023-01-09T05:59:01.401Z,0.90
2023-01-09T06:01:03.099Z,0.80
2023-01-09T06:03:05.075Z,1.15
2023-01-09T06:05:07.806Z,0.95
2023-01-09T06:07:09.834Z,2.05
2023-01-09T06:09:11.609Z,1.30
2023-01-09T06:11:13.273Z,0.95
2023-01-09T06:13:15.089Z,1.42
2023-01-09T06:15:17.706Z,1.13
2023-01-09T06:17:19.395Z,1.42
2023-01-09T06:19:21.200Z,1.10
2023-01-09T06:21:22.883Z,0.77
2023-01-09T06:23:24.594Z,1.10
2023-01-09T06:25:26.303Z,1.35
2023-01-09T06:27:28.071Z,1.10
2023-01-09T06:29:29.752Z,0.82
2023-01-09T06:31:31.554Z,1.08
2023-01-09T06:33:33.329Z,0.95
2023-01-09T06:35:35.026Z,1.58
2023-01-09T06:37:36.878Z,1.20
2023-01-09T06:39:38.644Z,0.63
2023-01-09T06:41:40.444Z,0.95
2023-01-09T06:43:42.117Z,1.13
2023-01-09T06:45:43.961Z,0.70
2023-01-09T06:47:45.738Z,1.20
2023-01-09T06:49:47.514Z,1.05
2023-01-09T06:51:51.808Z,1.48
2023-01-09T06:53:53.499Z,1.10
2023-01-09T06:55:55.243Z,1.08
2023-01-09T06:57:56.968Z,1.17
2023-01-09T06:59:58.611Z,0.90
2023-01-09T07:02:00.493Z,1.00
2023-01-09T07:04:02.294Z,2.60
2023-01-09T07:06:05.035Z,0.90
2023-01-09T07:08:07.086Z,0.73
2023-01-09T07:10:10.308Z,1.17
2023-01-09T07:12:12.884Z,1.33
2023-01-09T07:14:14.645Z,0.80
2023-01-09T07:16:16.500Z,0.82
2023-01-09T07:18:18.260Z,1.67
2023-01-09T07:20:20.713Z,0.95
2023-01-09T07:22:22.459Z,0.68
2023-01-09T07:24:24.163Z,1.13
2023-01-09T07:26:26.169Z,0.63
2023-01-09T07:28:27.866Z,1.20
2023-01-09T07:30:29.616Z,0.80
2023-01-09T07:32:32.088Z,1.45
2023-01-09T07:34:33.840Z,1.00
2023-01-09T07:36:35.647Z,1.10
2023-01-09T07:38:37.627Z,0.93
2023-01-09T07:40:39.414Z,1.20
2023-01-09T07:42:41.119Z,1.05
2023-01-09T07:44:42.859Z,1.20
2023-01-09T07:46:44.849Z,1.05
2023-01-09T07:48:46.655Z,1.40
2023-01-09T07:50:48.445Z,1.20
2023-01-09T07:52:50.179Z,0.80
2023-01-09T07:54:51.910Z,0.93
2023-01-09T07:56:53.998Z,1.13
2023-01-09T07:58:55.822Z,1.33
2023-01-09T08:00:58.296Z,0.77
2023-01-09T08:03:00.197Z,1.23
2023-01-09T08:05:02.166Z,0.82
2023-01-09T08:07:03.969Z,1.02
2023-01-09T08:09:05.750Z,0.93
2023-01-09T08:11:07.474Z,1.00
2023-01-09T08:13:09.387Z,0.90
2023-01-09T08:15:11.915Z,0.93
2023-01-09T08:17:13.824Z,1.23
2023-01-09T08:19:15.538Z,1.30
2023-01-09T08:21:17.438Z,1.25
2023-01-09T08:23:19.206Z,1.00
2023-01-09T08:25:21.411Z,0.95
2023-01-09T08:27:23.224Z,2.30
2023-01-09T08:29:25.070Z,1.15
2023-01-09T08:31:26.893Z,2.28
2023-01-09T08:33:29.346Z,1.55
2023-01-09T08:35:31.295Z,1.42
2023-01-09T08:37:33.097Z,0.80
2023-01-09T08:39:36.130Z,2.08
2023-01-09T08:41:47.348Z,1.50
2023-01-09T08:43:58.390Z,1.23
2023-01-09T08:46:10.255Z,1.42
2023-01-09T08:48:12.076Z,1.42
2023-01-09T08:50:14.191Z,1.20
2023-01-09T08:52:16.056Z,1.63
2023-01-09T08:54:17.822Z,1.15
2023-01-09T08:56:19.633Z,1.17
2023-01-09T08:58:21.486Z,1.83
2023-01-09T09:00:24.657Z,1.50
2023-01-09T09:02:26.436Z,1.13
2023-01-09T09:04:28.457Z,1.05
2023-01-09T09:06:30.181Z,0.93
2023-01-09T09:08:31.914Z,1.02
2023-01-09T09:10:34.047Z,0.60
2023-01-09T09:12:35.866Z,0.98
2023-01-09T09:14:47.658Z,1.05
2023-01-09T09:16:50.533Z,1.20
2023-01-09T09:18:52.943Z,1.75
2023-01-09T09:20:54.679Z,1.73
2023-01-09T09:22:56.526Z,0.90
2023-01-09T09:24:58.320Z,1.23
2023-01-09T09:27:00.144Z,0.98
2023-01-09T09:29:02.657Z,1.25
2023-01-09T09:31:06.880Z,1.30
2023-01-09T09:33:09.289Z,1.23
2023-01-09T09:35:11.744Z,2.00
2023-01-09T09:37:13.786Z,1.20
2023-01-09T09:39:16.032Z,1.05
2023-01-09T09:41:25.640Z,0.70
2023-01-09T09:43:40.121Z,1.00
2023-01-09T09:45:49.191Z,1.00
2023-01-09T09:47:57.597Z,1.02
2023-01-09T09:50:05.965Z,0.80
2023-01-09T09:52:19.760Z,0.80
2023-01-09T09:54:28.100Z,0.95
2023-01-09T09:56:36.588Z,1.30
2023-01-09T09:58:42.104Z,0.80
2023-01-09T10:00:44.543Z,1.20
2023-01-09T10:02:52.521Z,1.00
2023-01-09T10:05:01.451Z,0.90
2023-01-09T10:07:09.701Z,0.50
2023-01-09T10:09:16.525Z,0.60
2023-01-09T10:11:28.007Z,0.80
2023-01-09T10:13:33.579Z,1.23
2023-01-09T10:15:45.241Z,1.30
2023-01-09T10:17:51.070Z,1.30
2023-01-09T10:19:59.475Z,1.15
2023-01-09T10:22:12.680Z,0.95
2023-01-09T10:24:16.692Z,0.80
2023-01-09T10:26:23.206Z,1.20
2023-01-09T10:28:28.982Z,0.80
2023-01-09T10:30:37.323Z,0.98
2023-01-09T10:32:54.300Z,0.85
2023-01-09T10:35:02.815Z,1.15
2023-01-09T10:37:09.984Z,1.42
2023-01-09T10:39:20.627Z,1.02
2023-01-09T10:41:26.891Z,0.70
2023-01-09T10:43:35.179Z,1.10
2023-01-09T10:45:44.527Z,0.47
2023-01-09T10:47:47.545Z,1.02
2023-01-09T10:49:51.813Z,0.57
2023-01-09T10:52:11.392Z,1.15
2023-01-09T10:54:16.147Z,0.60
2023-01-09T10:56:24.344Z,0.82
2023-01-09T10:58:26.513Z,0.60
2023-01-09T11:00:28.927Z,0.70
2023-01-09T11:02:34.656Z,0.93
2023-01-09T11:04:39.811Z,0.68
2023-01-09T11:06:49.081Z,0.63
2023-01-09T11:08:57.751Z,0.35
2023-01-09T11:11:02.473Z,0.57
2023-01-09T11:13:18.445Z,0.68
2023-01-09T11:15:29.531Z,0.30
2023-01-09T11:17:31.770Z,0.30
2023-01-09T11:19:33.948Z,0.30
2023-01-09T11:21:42.061Z,0.57
2023-01-09T11:23:44.461Z,0.40
2023-01-09T11:25:54.182Z,0.40
2023-01-09T11:28:02.527Z,0.73
2023-01-09T11:30:08.526Z,0.30
2023-01-09T11:32:16.789Z,0.45
2023-01-09T11:34:28.090Z,0.40
2023-01-09T11:36:31.719Z,0.43
2023-01-09T11:38:48.515Z,0.77
2023-01-09T11:40:56.811Z,0.85
2023-01-09T11:43:03.428Z,0.52
2023-01-09T11:45:06.461Z,0.35
2023-01-09T11:47:26.941Z,0.38
2023-01-09T11:49:31.560Z,0.60
2023-01-09T11:51:35.828Z,0.38
2023-01-09T11:53:44.020Z,0.20
2023-01-09T11:55:50.358Z,0.50
2023-01-09T11:57:53.691Z,0.52
2023-01-09T12:00:02.108Z,0.68
2023-01-09T12:02:05.999Z,0.60
2023-01-09T12:04:14.366Z,0.40
2023-01-09T12:06:27.473Z,0.50
2023-01-09T12:08:35.650Z,0.47
2023-01-09T12:10:43.843Z,0.63
2023-01-09T12:12:51.963Z,0.43
2023-01-09T12:15:00.223Z,0.60
2023-01-09T12:17:13.407Z,0.50
2023-01-09T12:19:38.012Z,0.40
2023-01-09T12:21:49.664Z,0.65
2023-01-09T12:23:57.939Z,0.50
2023-01-09T12:26:04.511Z,0.88
2023-01-09T12:28:18.424Z,0.60
2023-01-09T12:30:23.985Z,1.00
2023-01-09T12:32:35.698Z,0.93
2023-01-09T12:34:43.868Z,0.70
2023-01-09T12:37:00.304Z,0.73
2023-01-09T12:39:20.031Z,0.68
2023-01-09T12:41:32.479Z,0.63
2023-01-09T12:43:51.590Z,0.30
2023-01-09T12:46:03.112Z,0.70
2023-01-09T12:48:17.904Z,0.40
2023-01-09T12:50:39.772Z,0.50
2023-01-09T12:52:49.023Z,0.43
2023-01-09T12:54:58.671Z,0.50
2023-01-09T12:57:13.568Z,0.40
2023-01-09T12:59:30.877Z,0.38
2023-01-09T13:01:39.026Z,0.60
2023-01-09T13:03:52.615Z,0.57
2023-01-09T13:05:57.472Z,0.30
2023-01-09T13:08:02.868Z,0.52
2023-01-09T13:10:12.219Z,0.40
2023-01-09T13:12:21.909Z,1.05
2023-01-09T13:14:47.745Z,0.28
2023-01-09T13:16:53.492Z,1.00
2023-01-09T13:19:08.117Z,0.50
2023-01-09T13:21:13.884Z,0.75
2023-01-09T13:23:19.623Z,0.77
2023-01-09T13:25:31.595Z,0.40
2023-01-09T13:27:39.682Z,0.35
2023-01-09T13:29:44.223Z,0.40
2023-01-09T13:31:55.887Z,0.95
2023-01-09T13:34:00.540Z,0.70
2023-01-09T13:36:03.854Z,0.98
2023-01-09T13:38:05.787Z,0.50
2023-01-09T13:40:27.335Z,0.65
2023-01-09T13:42:39.336Z,0.80
2023-01-09T13:44:42.643Z,0.93
2023-01-09T13:46:48.498Z,0.60
2023-01-09T13:48:50.440Z,0.60
2023-01-09T13:50:53.969Z,0.80
2023-01-09T13:52:56.330Z,0.85
2023-01-09T13:54:58.827Z,1.27
2023-01-09T13:57:25.561Z,0.60
2023-01-09T13:59:28.646Z,0.63
2023-01-09T14:01:36.116Z,0.70
2023-01-09T14:03:38.733Z,0.70
2023-01-09T14:05:41.003Z,0.82
2023-01-09T14:08:01.395Z,1.27
2023-01-09T14:10:07.939Z,1.08
2023-01-09T14:12:14.125Z,0.82
2023-01-09T14:14:26.390Z,0.80
2023-01-09T14:16:30.745Z,0.68
2023-01-09T14:18:35.918Z,0.60
2023-01-09T14:20:41.533Z,0.88
2023-01-09T14:22:55.892Z,1.35
2023-01-09T14:25:10.346Z,0.77
2023-01-09T14:27:41.711Z,0.63
2023-01-09T14:29:45.273Z,0.70
2023-01-09T14:31:47.327Z,0.82
2023-01-09T14:33:49.369Z,0.80
2023-01-09T14:36:08.433Z,0.65
2023-01-09T14:38:29.487Z,0.70
2023-01-09T14:40:32.412Z,1.30
2023-01-09T14:42:40.766Z,0.98
2023-01-09T14:44:53.963Z,0.90
2023-01-09T14:47:07.601Z,0.60
2023-01-09T14:49:28.402Z,0.90
2023-01-09T14:51:36.144Z,0.68
2023-01-09T14:53:40.264Z,0.60
2023-01-09T14:55:51.252Z,0.80
2023-01-09T14:57:55.193Z,0.63
2023-01-09T15:00:14.524Z,0.90
2023-01-09T15:02:17.536Z,0.60
2023-01-09T15:04:26.869Z,0.68
2023-01-09T15:06:33.482Z,1.02
2023-01-09T15:08:37.087Z,1.10
2023-01-09T15:10:39.157Z,1.33
2023-01-09T15:12:41.533Z,1.17
2023-01-09T15:14:46.082Z,1.23
2023-01-09T15:16:48.383Z,1.05
2023-01-09T15:18:54.942Z,1.48
2023-01-09T15:21:01.483Z,0.77
2023-01-09T15:23:05.584Z,0.80
2023-01-09T15:25:33.827Z,0.70
2023-01-09T15:27:50.658Z,1.02
2023-01-09T15:29:53.119Z,0.80
2023-01-09T15:32:01.477Z,0.80
2023-01-09T15:34:04.643Z,1.98
2023-01-09T15:36:15.929Z,0.98
2023-01-09T15:38:24.003Z,0.80
2023-01-09T15:40:32.610Z,0.88
2023-01-09T15:42:47.307Z,0.80
2023-01-09T15:44:52.326Z,0.77
2023-01-09T15:46:59.824Z,0.98
2023-01-09T15:49:02.018Z,0.98
2023-01-09T15:51:13.688Z,1.13
2023-01-09T15:53:18.704Z,1.20
2023-01-09T15:55:28.088Z,0.95
2023-01-09T15:57:34.287Z,1.00
2023-01-09T15:59:37.103Z,1.40
2023-01-09T16:01:41.739Z,1.17
2023-01-09T16:03:44.007Z,1.67
2023-01-09T16:05:52.115Z,0.80
2023-01-09T16:07:54.055Z,0.85
2023-01-09T16:09:56.225Z,1.02
2023-01-09T16:12:01.852Z,0.93
2023-01-09T16:14:17.044Z,1.55
2023-01-09T16:16:31.236Z,2.20
2023-01-09T16:18:37.544Z,1.60
2023-01-09T16:20:40.342Z,1.42
2023-01-09T16:22:53.360Z,1.17
2023-01-09T16:24:57.992Z,0.77
2023-01-09T16:27:19.567Z,0.93
2023-01-09T16:29:34.003Z,1.40
2023-01-09T16:31:36.415Z,0.90
2023-01-09T16:33:45.533Z,1.05
2023-01-09T16:35:47.476Z,0.90
2023-01-09T16:37:49.468Z,2.20
2023-01-09T16:40:10.608Z,0.95
2023-01-09T16:42:22.304Z,0.68
2023-01-09T16:44:24.268Z,1.13
2023-01-09T16:46:26.693Z,1.13
2023-01-09T16:48:29.274Z,1.23
2023-01-09T16:50:31.330Z,1.40
2023-01-09T16:52:33.298Z,1.00
2023-01-09T16:54:35.219Z,1.08
2023-01-09T16:56:39.362Z,1.15
2023-01-09T16:58:41.467Z,1.13
2023-01-09T17:00:43.384Z,1.10
2023-01-09T17:02:45.643Z,1.20
2023-01-09T17:04:47.797Z,1.77
2023-01-09T17:06:50.299Z,1.00
2023-01-09T17:08:52.208Z,1.63
2023-01-09T17:10:56.028Z,1.17
2023-01-09T17:12:57.979Z,1.05
2023-01-09T17:15:01.527Z,0.80
2023-01-09T17:17:03.590Z,1.10
2023-01-09T17:19:06.221Z,1.00
2023-01-09T17:21:16.483Z,1.73
2023-01-09T17:23:18.625Z,1.55
2023-01-09T17:25:30.345Z,0.73
2023-01-09T17:27:45.704Z,1.00
2023-01-09T17:29:48.476Z,1.58
2023-01-09T17:31:50.558Z,0.80
2023-01-09T17:33:53.053Z,0.60
2023-01-09T17:35:56.124Z,1.00
2023-01-09T17:37:58.334Z,0.65
2023-01-09T17:40:03.753Z,0.60
2023-01-09T17:42:05.763Z,0.70
2023-01-09T17:44:07.869Z,0.80
2023-01-09T17:48:20.172Z,1.02
2023-01-09T17:50:22.663Z,1.27
2023-01-09T17:52:26.684Z,1.13
2023-01-09T17:54:28.653Z,1.77
2023-01-09T17:56:33.312Z,1.05
2023-01-09T17:58:35.364Z,1.63
2023-01-09T18:00:37.267Z,0.95
2023-01-09T18:02:39.342Z,0.98
2023-01-09T18:04:41.302Z,1.00
2023-01-09T18:06:43.495Z,1.77
2023-01-09T18:08:45.883Z,0.80
2023-01-09T18:10:48.784Z,0.82
2023-01-09T18:12:52.495Z,1.13
2023-01-09T18:14:54.501Z,2.15
2023-01-09T18:16:57.076Z,0.88
2023-01-09T18:18:59.604Z,0.90
2023-01-09T18:21:04.904Z,0.75
2023-01-09T18:23:07.770Z,0.80
2023-01-09T18:25:10.327Z,1.17
2023-01-09T18:27:12.261Z,1.00
2023-01-09T18:29:15.387Z,1.17
2023-01-09T18:31:22.209Z,1.13
2023-01-09T18:33:24.325Z,1.20
2023-01-09T18:35:26.187Z,1.90
2023-01-09T18:37:28.271Z,1.20
2023-01-09T18:39:30.303Z,1.63
2023-01-09T18:41:32.645Z,1.67
2023-01-09T18:43:34.583Z,1.40
2023-01-09T18:45:38.852Z,1.20
2023-01-09T18:47:40.842Z,1.20
2023-01-09T18:49:42.725Z,1.73
2023-01-09T18:51:44.661Z,1.35
2023-01-09T18:53:50.549Z,1.15
2023-01-09T18:55:52.454Z,1.33
2023-01-09T18:57:56.323Z,1.90
2023-01-09T18:59:58.223Z,1.60
2023-01-09T19:02:02.135Z,1.00
2023-01-09T19:04:04.675Z,1.20
2023-01-09T19:06:07.317Z,1.30
2023-01-09T19:08:09.402Z,0.98
2023-01-09T19:10:12.102Z,0.98
2023-01-09T19:12:13.994Z,1.00
2023-01-09T19:14:16.216Z,1.40
2023-01-09T19:16:18.739Z,1.35
2023-01-09T19:18:20.684Z,1.52
2023-01-09T19:20:23.268Z,1.45
2023-01-09T19:22:26.985Z,2.03
2023-01-09T19:24:28.978Z,1.38
2023-01-09T19:26:31.390Z,1.50
2023-01-09T19:28:33.352Z,1.60
2023-01-09T19:30:35.624Z,1.83
2023-01-09T19:32:40.007Z,2.30
2023-01-09T19:34:41.904Z,2.08
2023-01-09T19:36:44.922Z,1.75
2023-01-09T19:38:46.923Z,1.40
2023-01-09T19:42:53.537Z,1.60
2023-01-09T19:44:55.332Z,1.50
2023-01-09T19:46:57.216Z,3.08
2023-01-09T19:49:01.840Z,2.33
2023-01-09T19:51:05.821Z,3.10
2023-01-09T19:53:07.777Z,2.08
2023-01-09T19:55:13.667Z,1.17
2023-01-09T19:57:15.525Z,1.98
2023-01-09T19:59:17.634Z,1.40
2023-01-09T20:01:24.846Z,2.45
2023-01-09T20:03:26.925Z,2.80
2023-01-09T20:05:29.327Z,1.80
2023-01-09T20:07:31.276Z,2.85
2023-01-09T20:09:33.329Z,1.60
2023-01-09T20:11:35.271Z,1.67
2023-01-09T20:13:37.881Z,2.47
2023-01-09T20:15:40.767Z,1.65
2023-01-09T20:17:42.990Z,1.70
2023-01-09T20:19:45.687Z,2.28
2023-01-09T20:21:47.859Z,1.80
2023-01-09T20:23:50.710Z,1.65
2023-01-09T20:25:52.769Z,1.95
2023-01-09T20:27:54.813Z,2.67
2023-01-09T20:29:56.792Z,2.30
2023-01-09T20:31:58.677Z,1.58
2023-01-09T20:34:01.682Z,1.80
2023-01-09T20:36:05.098Z,2.35
2023-01-09T20:38:07.522Z,1.85
2023-01-09T20:40:10.750Z,2.45
2023-01-09T20:42:12.825Z,1.50
2023-01-09T20:44:16.058Z,1.95
2023-01-09T20:46:18.400Z,2.95
2023-01-09T20:48:20.803Z,1.83
2023-01-09T20:50:23.057Z,2.60
2023-01-09T20:52:24.974Z,2.33
2023-01-09T20:54:27.152Z,2.47
2023-01-09T20:56:32.062Z,2.53
2023-01-09T20:58:34.726Z,2.55
2023-01-09T21:00:37.006Z,2.35
2023-01-09T21:02:39.308Z,2.63
2023-01-09T21:04:41.333Z,2.40
2023-01-09T21:06:43.820Z,2.22
2023-01-09T21:08:47.475Z,1.98
2023-01-09T21:10:49.573Z,2.10
2023-01-09T21:12:52.891Z,2.30
2023-01-09T21:14:55.697Z,1.90
2023-01-09T21:16:57.725Z,1.60
2023-01-09T21:18:59.718Z,1.92
2023-01-09T21:21:04.813Z,2.25
2023-01-09T21:23:08.467Z,2.22
2023-01-09T21:25:10.816Z,2.50
2023-01-09T21:27:13.848Z,1.95
2023-01-09T21:29:16.781Z,3.17
2023-01-09T21:31:23.073Z,2.17
2023-01-09T21:33:24.883Z,2.00
2023-01-09T21:35:26.847Z,2.33
2023-01-09T21:37:30.156Z,3.58
2023-01-09T21:39:32.394Z,3.95
2023-01-09T21:41:43.790Z,2.25
2023-01-09T21:43:55.315Z,2.05
2023-01-09T21:46:07.349Z,2.65
2023-01-09T21:48:09.372Z,2.40
2023-01-09T21:50:11.339Z,2.42
2023-01-09T21:52:14.273Z,2.78
2023-01-09T21:54:16.074Z,2.33
2023-01-09T21:56:17.856Z,2.90
2023-01-09T21:58:19.749Z,3.35
2023-01-09T22:00:22.105Z,2.47
2023-01-09T22:02:24.008Z,2.80
2023-01-09T22:04:29.131Z,3.38
2023-01-09T22:06:31.545Z,1.85
2023-01-09T22:08:33.429Z,2.20
2023-01-09T22:10:35.268Z,3.08
2023-01-09T22:12:37.168Z,2.53
2023-01-09T22:14:39.723Z,3.08
2023-01-09T22:16:43.746Z,2.33
2023-01-09T22:18:45.666Z,2.60
2023-01-09T22:20:47.428Z,2.08
2023-01-09T22:22:49.673Z,2.70
2023-01-09T22:24:53.254Z,2.85
2023-01-09T22:26:55.124Z,2.10
2023-01-09T22:28:57.504Z,2.50
2023-01-09T22:30:59.402Z,3.42
2023-01-09T22:33:02.810Z,3.33
2023-01-09T22:35:05.442Z,2.80
2023-01-09T22:37:07.310Z,2.28
2023-01-09T22:39:12.449Z,3.30
2023-01-09T22:41:14.711Z,2.58
2023-01-09T22:43:17.368Z,2.67
2023-01-09T22:45:19.552Z,2.42
2023-01-09T22:47:21.472Z,1.88
2023-01-09T22:49:23.366Z,2.63
2023-01-09T22:51:25.207Z,2.47
2023-01-09T22:53:27.620Z,3.58
2023-01-09T22:55:29.451Z,2.72
2023-01-09T22:57:31.633Z,2.28
2023-01-09T22:59:33.462Z,3.45
2023-01-09T23:01:35.357Z,2.63
2023-01-09T23:03:37.217Z,2.83
2023-01-09T23:05:39.056Z,3.33
2023-01-09T23:07:40.997Z,2.00
2023-01-09T23:09:42.847Z,2.67
2023-01-09T23:11:54.597Z,2.10
2023-01-09T23:13:56.386Z,2.38
2023-01-09T23:15:58.597Z,3.45
2023-01-09T23:18:00.508Z,3.30
2023-01-09T23:20:02.333Z,2.75
2023-01-09T23:22:05.142Z,3.05
2023-01-09T23:24:07.848Z,2.83
2023-01-09T23:26:09.649Z,2.78
2023-01-09T23:28:11.483Z,2.75
2023-01-09T23:30:14.003Z,2.53
2023-01-09T23:32:15.839Z,3.35
2023-01-09T23:34:20.237Z,3.13
2023-01-09T23:36:22.576Z,2.83
2023-01-09T23:38:24.432Z,2.25
2023-01-09T23:40:26.351Z,2.45
2023-01-09T23:42:37.487Z,2.90
2023-01-09T23:44:39.534Z,2.92
2023-01-09T23:46:41.490Z,2.63
2023-01-09T23:48:43.313Z,1.98
2023-01-09T23:50:54.879Z,1.95
2023-01-09T23:52:56.659Z,2.65
2023-01-09T23:54:58.430Z,2.50
2023-01-09T23:57:00.285Z,2.53
2023-01-09T23:59:05.123Z,3.53
